createdAt,value
2018-07-26T00:00:37.857Z,54.45
2018-07-26T00:03:11.257Z,56.73
2018-07-26T00:05:44.631Z,55.50
2018-07-26T00:08:18.003Z,56.14
2018-07-26T00:10:51.408Z,56.37
2018-07-26T00:13:24.791Z,56.49
2018-07-26T00:15:58.171Z,55.61
2018-07-26T00:18:31.593Z,55.04
2018-07-26T00:21:05.036Z,55.16
2018-07-26T00:23:38.451Z,54.82
2018-07-26T00:26:11.894Z,55.11
2018-07-26T00:28:45.267Z,55.09
2018-07-26T00:31:18.685Z,54.78
2018-07-26T00:33:52.135Z,55.58
2018-07-26T00:36:25.548Z,56.39
2018-07-26T00:38:58.923Z,55.45
2018-07-26T00:41:32.323Z,55.46
2018-07-26T00:44:05.761Z,55.76
2018-07-26T00:46:39.220Z,56.62
2018-07-26T00:49:12.604Z,55.95
2018-07-26T00:51:46.037Z,55.47
2018-07-26T00:54:19.435Z,55.85
2018-07-26T00:56:52.815Z,56.40
2018-07-26T00:59:26.173Z,56.68
2018-07-26T01:01:59.554Z,56.66
2018-07-26T01:04:32.938Z,56.03
2018-07-26T01:07:06.360Z,55.96
2018-07-26T01:09:39.771Z,56.04
2018-07-26T01:12:13.185Z,55.97
2018-07-26T01:14:46.560Z,55.95
2018-07-26T01:17:20.037Z,56.57
2018-07-26T01:19:53.507Z,55.89
2018-07-26T01:22:26.912Z,56.28
2018-07-26T01:25:00.316Z,56.05
2018-07-26T01:27:33.695Z,56.72
2018-07-26T01:30:07.330Z,56.59
2018-07-26T01:32:40.742Z,56.60
2018-07-26T01:35:14.152Z,57.02
2018-07-26T01:37:47.534Z,56.76
2018-07-26T01:40:20.908Z,57.30
2018-07-26T01:43:05.579Z,56.90
2018-07-26T01:45:38.986Z,56.46
2018-07-26T01:48:12.359Z,57.36
2018-07-26T01:50:45.754Z,57.47
2018-07-26T01:53:19.106Z,57.35
2018-07-26T01:55:52.519Z,57.21
2018-07-26T01:58:25.888Z,57.46
2018-07-26T02:00:59.287Z,57.10
2018-07-26T02:03:32.857Z,57.47
2018-07-26T02:06:06.362Z,57.17
2018-07-26T02:08:39.775Z,58.06
2018-07-26T02:11:13.216Z,58.20
2018-07-26T02:13:46.595Z,58.50
2018-07-26T02:16:20.003Z,58.16
2018-07-26T02:18:53.410Z,58.51
2018-07-26T02:21:26.809Z,58.08
2018-07-26T02:24:00.167Z,58.20
2018-07-26T02:26:33.581Z,58.23
2018-07-26T02:29:06.959Z,58.15
2018-07-26T02:31:40.340Z,58.60
2018-07-26T02:34:13.715Z,58.59
2018-07-26T02:36:47.115Z,58.83
2018-07-26T02:39:20.486Z,58.39
2018-07-26T02:41:53.906Z,58.43
2018-07-26T02:44:27.331Z,58.24
2018-07-26T02:47:00.738Z,58.64
2018-07-26T02:49:34.152Z,58.83
2018-07-26T02:52:07.544Z,58.91
2018-07-26T02:54:40.904Z,58.82
2018-07-26T02:57:14.324Z,59.56
2018-07-26T02:59:47.708Z,59.19
2018-07-26T03:02:21.088Z,59.49
2018-07-26T03:04:54.479Z,59.55
2018-07-26T03:07:27.895Z,59.40
2018-07-26T03:10:01.334Z,59.42
2018-07-26T03:12:34.727Z,59.25
2018-07-26T03:15:08.156Z,59.53
2018-07-26T03:17:41.605Z,60.07
2018-07-26T03:20:14.989Z,59.67
2018-07-26T03:22:48.430Z,59.29
2018-07-26T03:25:21.799Z,59.52
2018-07-26T03:27:55.244Z,59.63
2018-07-26T03:30:28.649Z,60.35
2018-07-26T03:33:02.072Z,60.24
2018-07-26T03:35:35.454Z,60.26
2018-07-26T03:38:08.827Z,60.01
2018-07-26T03:40:42.202Z,59.96
2018-07-26T03:43:15.592Z,59.80
2018-07-26T03:45:49.003Z,59.80
2018-07-26T03:48:22.393Z,60.00
2018-07-26T03:50:55.787Z,59.85
2018-07-26T03:53:29.202Z,59.62
2018-07-26T03:56:02.559Z,59.96
2018-07-26T03:58:35.940Z,59.79
2018-07-26T04:01:09.345Z,59.99
2018-07-26T04:03:42.743Z,59.89
2018-07-26T04:06:16.291Z,60.34
2018-07-26T04:08:49.684Z,60.07
2018-07-26T04:11:23.128Z,59.88
2018-07-26T04:13:56.579Z,60.11
2018-07-26T04:16:30.080Z,60.00
2018-07-26T04:19:03.575Z,59.71
2018-07-26T04:21:37.343Z,60.13
2018-07-26T04:24:10.832Z,60.41
2018-07-26T04:26:44.255Z,60.29
2018-07-26T04:29:17.683Z,61.15
2018-07-26T04:31:51.151Z,60.83
2018-07-26T04:34:24.545Z,61.40
2018-07-26T04:36:57.928Z,61.20
2018-07-26T04:39:31.460Z,61.30
2018-07-26T04:42:05.007Z,60.66
2018-07-26T04:44:38.403Z,59.68
2018-07-26T04:47:12.061Z,59.28
2018-07-26T04:49:45.525Z,58.95
2018-07-26T04:52:19.104Z,58.71
2018-07-26T04:54:52.733Z,58.22
2018-07-26T04:57:26.161Z,58.09
2018-07-26T04:59:59.591Z,57.55
2018-07-26T05:02:33.014Z,57.82
2018-07-26T05:05:06.990Z,57.22
2018-07-26T05:07:40.381Z,57.29
2018-07-26T05:10:13.770Z,57.08
2018-07-26T05:12:48.791Z,56.96
2018-07-26T05:15:22.237Z,56.57
2018-07-26T05:17:55.626Z,56.19
2018-07-26T05:20:29.043Z,56.34
2018-07-26T05:23:02.468Z,56.88
2018-07-26T05:25:35.912Z,55.18
2018-07-26T05:28:09.281Z,54.16
2018-07-26T05:30:42.647Z,54.77
2018-07-26T05:33:16.052Z,53.34
2018-07-26T05:35:49.434Z,53.21
2018-07-26T05:38:22.856Z,52.93
2018-07-26T05:40:56.248Z,52.57
2018-07-26T05:43:29.645Z,52.02
2018-07-26T05:46:03.291Z,53.05
2018-07-26T05:48:36.680Z,52.91
2018-07-26T05:51:10.123Z,51.27
2018-07-26T05:53:43.554Z,50.53
2018-07-26T05:56:16.911Z,49.96
2018-07-26T05:58:50.311Z,51.52
2018-07-26T06:01:23.725Z,49.38
2018-07-26T06:03:57.456Z,50.23
2018-07-26T06:06:30.845Z,49.15
2018-07-26T06:09:06.654Z,48.89
2018-07-26T06:11:40.603Z,48.87
2018-07-26T06:14:14.051Z,48.13
2018-07-26T06:16:47.436Z,47.20
2018-07-26T06:19:20.862Z,47.15
2018-07-26T06:21:54.283Z,47.39
2018-07-26T06:24:27.696Z,46.22
2018-07-26T06:27:01.117Z,46.22
2018-07-26T06:29:34.513Z,47.56
2018-07-26T06:32:08.027Z,47.58
2018-07-26T06:34:41.446Z,45.14
2018-07-26T06:37:14.873Z,44.96
2018-07-26T06:39:48.256Z,44.71
2018-07-26T06:42:21.614Z,44.66
2018-07-26T06:44:55.119Z,45.81
2018-07-26T06:47:28.493Z,44.38
2018-07-26T06:50:01.875Z,44.55
2018-07-26T06:52:35.313Z,44.12
2018-07-26T06:55:08.857Z,43.91
2018-07-26T06:57:42.253Z,43.79
2018-07-26T07:00:15.656Z,45.31
2018-07-26T07:02:49.041Z,43.82
2018-07-26T07:05:22.522Z,44.72
2018-07-26T07:07:55.879Z,43.42
2018-07-26T07:10:29.416Z,42.64
2018-07-26T07:13:02.832Z,43.54
2018-07-26T07:15:36.238Z,41.60
2018-07-26T07:18:09.621Z,42.03
2018-07-26T07:20:43.031Z,41.78
2018-07-26T07:23:16.436Z,42.04
2018-07-26T07:25:49.961Z,40.99
2018-07-26T07:28:23.356Z,41.25
2018-07-26T07:30:56.769Z,40.77
2018-07-26T07:33:30.249Z,40.34
2018-07-26T07:36:03.861Z,38.80
2018-07-26T07:38:37.252Z,37.84
2018-07-26T07:41:10.715Z,37.36
2018-07-26T07:43:44.102Z,35.92
2018-07-26T07:46:17.764Z,37.05
2018-07-26T07:48:51.164Z,36.74
2018-07-26T07:51:24.873Z,37.55
2018-07-26T07:53:58.493Z,38.50
2018-07-26T07:56:31.992Z,38.22
2018-07-26T07:59:05.427Z,37.04
2018-07-26T08:01:38.862Z,35.01
2018-07-26T08:04:12.245Z,36.38
2018-07-26T08:06:45.753Z,34.88
2018-07-26T08:09:19.159Z,34.30
2018-07-26T08:11:52.554Z,34.12
2018-07-26T08:14:25.939Z,33.43
2018-07-26T08:16:59.336Z,33.49
2018-07-26T08:19:32.795Z,32.66
2018-07-26T08:22:06.378Z,33.36
2018-07-26T08:24:39.772Z,34.32
2018-07-26T08:27:13.147Z,33.11
2018-07-26T08:29:46.557Z,33.42
2018-07-26T08:32:19.959Z,32.61
2018-07-26T08:34:53.381Z,32.57
2018-07-26T08:37:26.742Z,30.96
2018-07-26T08:40:00.153Z,31.71
2018-07-26T08:42:33.543Z,31.34
2018-07-26T08:45:06.981Z,30.31
2018-07-26T08:47:40.358Z,32.15
2018-07-26T08:50:13.805Z,32.38
2018-07-26T08:52:47.169Z,31.08
2018-07-26T08:55:20.558Z,31.45
2018-07-26T08:57:54.055Z,31.86
2018-07-26T09:00:27.439Z,31.14
2018-07-26T09:03:00.864Z,29.97
2018-07-26T09:05:34.254Z,30.38
2018-07-26T09:08:07.614Z,29.43
2018-07-26T09:10:40.996Z,28.83
2018-07-26T09:13:14.374Z,28.92
2018-07-26T09:15:47.762Z,28.67
2018-07-26T09:18:21.198Z,29.29
2018-07-26T09:20:54.676Z,29.53
2018-07-26T09:23:29.270Z,28.85
2018-07-26T09:26:02.857Z,29.15
2018-07-26T09:28:36.325Z,27.68
2018-07-26T09:31:10.122Z,27.89
2018-07-26T09:33:43.875Z,28.43
2018-07-26T09:36:17.820Z,29.07
2018-07-26T09:38:51.321Z,28.25
2018-07-26T09:41:24.823Z,28.79
2018-07-26T09:43:58.190Z,28.68
2018-07-26T09:46:31.751Z,30.06
2018-07-26T09:49:05.276Z,30.01
2018-07-26T09:51:38.678Z,28.89
2018-07-26T09:54:12.061Z,28.26
2018-07-26T09:56:45.462Z,27.71
2018-07-26T09:59:18.854Z,28.14
2018-07-26T10:01:52.267Z,28.65
2018-07-26T10:04:25.651Z,29.12
2018-07-26T10:06:59.089Z,29.34
2018-07-26T10:09:32.558Z,28.35
2018-07-26T10:12:06.019Z,28.43
2018-07-26T10:14:39.402Z,27.42
2018-07-26T10:17:12.793Z,28.14
2018-07-26T10:19:46.196Z,27.18
2018-07-26T10:22:19.619Z,26.71
2018-07-26T10:24:59.643Z,29.17
2018-07-26T10:27:33.135Z,27.03
2018-07-26T10:30:08.384Z,26.43
2018-07-26T10:32:41.771Z,28.08
2018-07-26T10:35:15.177Z,26.44
2018-07-26T10:37:48.593Z,28.06
2018-07-26T10:40:22.068Z,26.90
2018-07-26T10:42:55.482Z,27.15
2018-07-26T10:45:28.892Z,26.85
2018-07-26T10:48:02.328Z,27.30
2018-07-26T10:50:35.721Z,27.81
2018-07-26T10:53:09.129Z,26.96
2018-07-26T10:55:42.510Z,25.85
2018-07-26T10:58:15.923Z,25.52
2018-07-26T11:00:49.304Z,26.06
2018-07-26T11:03:23.446Z,26.92
2018-07-26T11:05:56.843Z,25.71
2018-07-26T11:08:30.244Z,25.22
2018-07-26T11:11:03.628Z,24.86
2018-07-26T11:13:37.044Z,25.65
2018-07-26T11:16:10.435Z,24.87
2018-07-26T11:18:43.839Z,25.09
2018-07-26T11:21:17.214Z,26.52
2018-07-26T11:23:50.646Z,25.47
2018-07-26T11:26:24.043Z,23.85
2018-07-26T11:28:57.455Z,24.85
2018-07-26T11:31:30.819Z,25.46
2018-07-26T11:34:04.243Z,24.52
2018-07-26T11:36:37.626Z,25.24
2018-07-26T11:39:11.962Z,25.60
2018-07-26T11:41:45.398Z,23.22
2018-07-26T11:44:18.756Z,23.04
2018-07-26T11:46:52.164Z,22.64
2018-07-26T11:49:32.335Z,24.03
2018-07-26T11:52:05.841Z,26.05
2018-07-26T11:54:39.226Z,25.08
2018-07-26T11:57:12.623Z,24.07
2018-07-26T11:59:46.176Z,24.58
2018-07-26T12:02:19.654Z,24.79
2018-07-26T12:04:53.036Z,23.72
2018-07-26T12:07:26.428Z,24.12
2018-07-26T12:09:59.822Z,24.14
2018-07-26T12:12:33.287Z,23.79
2018-07-26T12:15:06.668Z,25.78
2018-07-26T12:17:40.106Z,25.39
2018-07-26T12:20:13.511Z,24.77
2018-07-26T12:22:46.910Z,25.14
2018-07-26T12:25:20.300Z,24.47
2018-07-26T12:27:53.699Z,24.49
2018-07-26T12:30:27.086Z,24.32
2018-07-26T12:33:00.472Z,24.99
2018-07-26T12:35:33.863Z,24.35
2018-07-26T12:38:07.299Z,26.38
2018-07-26T12:40:40.699Z,25.82
2018-07-26T12:43:14.118Z,24.90
2018-07-26T12:45:47.529Z,25.38
2018-07-26T12:48:20.938Z,26.31
2018-07-26T12:50:54.368Z,26.02
2018-07-26T12:53:27.839Z,25.20
2018-07-26T12:56:01.271Z,24.49
2018-07-26T12:58:34.685Z,25.03
2018-07-26T13:01:08.154Z,24.51
2018-07-26T13:03:41.651Z,24.25
2018-07-26T13:06:15.080Z,24.17
2018-07-26T13:08:48.481Z,23.99
2018-07-26T13:11:21.878Z,24.04
2018-07-26T13:13:55.287Z,23.83
2018-07-26T13:16:35.215Z,25.40
2018-07-26T13:19:08.627Z,24.62
2018-07-26T13:21:42.001Z,24.35
2018-07-26T13:24:15.421Z,25.62
2018-07-26T13:26:48.795Z,24.86
2018-07-26T13:29:22.599Z,23.64
2018-07-26T13:31:55.979Z,23.46
2018-07-26T13:34:29.387Z,23.15
2018-07-26T13:37:02.802Z,23.67
2018-07-26T13:39:36.184Z,23.65
2018-07-26T13:42:09.559Z,23.18
2018-07-26T13:44:42.963Z,24.25
2018-07-26T13:47:16.451Z,23.78
2018-07-26T13:49:49.870Z,24.38
2018-07-26T13:52:23.364Z,24.47
2018-07-26T13:54:56.773Z,24.17
2018-07-26T13:57:30.251Z,24.16
2018-07-26T14:00:03.714Z,23.41
2018-07-26T14:02:37.129Z,23.73
2018-07-26T14:05:10.581Z,22.86
2018-07-26T14:07:44.058Z,24.16
2018-07-26T14:10:17.466Z,24.26
2018-07-26T14:12:50.842Z,24.71
2018-07-26T14:15:24.308Z,23.84
2018-07-26T14:17:57.664Z,24.21
2018-07-26T14:20:31.099Z,24.18
2018-07-26T14:23:04.484Z,24.48
2018-07-26T14:25:37.880Z,24.48
2018-07-26T14:28:11.257Z,23.92
2018-07-26T14:30:44.651Z,24.48
2018-07-26T14:33:18.017Z,23.76
2018-07-26T14:35:51.403Z,25.04
2018-07-26T14:38:24.799Z,23.92
2018-07-26T14:40:58.310Z,23.37
2018-07-26T14:43:31.717Z,23.60
2018-07-26T14:46:05.155Z,25.63
2018-07-26T14:48:38.532Z,25.31
2018-07-26T14:51:11.968Z,24.26
2018-07-26T14:53:45.351Z,24.20
2018-07-26T14:56:18.750Z,23.67
2018-07-26T14:58:52.325Z,23.50
2018-07-26T15:01:25.802Z,24.23
2018-07-26T15:03:59.294Z,24.20
2018-07-26T15:06:32.726Z,24.54
2018-07-26T15:09:09.412Z,24.08
2018-07-26T15:11:42.832Z,24.74
2018-07-26T15:14:16.481Z,24.03
2018-07-26T15:16:49.899Z,25.22
2018-07-26T15:19:23.505Z,24.76
2018-07-26T15:21:57.175Z,25.21
2018-07-26T15:24:32.089Z,23.84
2018-07-26T15:27:05.975Z,24.39
2018-07-26T15:29:40.096Z,24.33
2018-07-26T15:32:13.531Z,23.91
2018-07-26T15:34:47.349Z,23.87
2018-07-26T15:37:21.027Z,24.52
2018-07-26T15:39:54.430Z,24.18
2018-07-26T15:42:27.796Z,24.84
2018-07-26T15:45:01.319Z,25.08
2018-07-26T15:47:34.987Z,25.12
2018-07-26T15:50:08.388Z,24.82
2018-07-26T15:52:41.823Z,24.89
2018-07-26T15:55:15.214Z,25.34
2018-07-26T15:57:48.683Z,25.52
2018-07-26T16:00:22.100Z,25.15
2018-07-26T16:02:55.739Z,24.41
2018-07-26T16:05:29.167Z,24.18
2018-07-26T16:08:02.605Z,24.37
2018-07-26T16:10:36.112Z,24.76
2018-07-26T16:13:09.492Z,25.66
2018-07-26T16:15:42.920Z,24.56
2018-07-26T16:18:16.395Z,24.60
2018-07-26T16:20:49.835Z,24.54
2018-07-26T16:23:23.356Z,24.54
2018-07-26T16:25:56.781Z,24.97
2018-07-26T16:28:30.272Z,25.42
2018-07-26T16:31:03.760Z,24.42
2018-07-26T16:33:37.155Z,24.58
2018-07-26T16:36:10.540Z,24.81
2018-07-26T16:38:44.223Z,23.50
2018-07-26T16:41:17.971Z,23.72
2018-07-26T16:43:51.597Z,23.15
2018-07-26T16:46:25.028Z,24.78
2018-07-26T16:48:58.465Z,24.46
2018-07-26T16:51:31.892Z,24.08
2018-07-26T16:54:05.302Z,23.69
2018-07-26T16:56:38.764Z,23.79
2018-07-26T16:59:12.166Z,24.34
2018-07-26T17:01:45.561Z,24.15
2018-07-26T17:04:18.918Z,24.64
2018-07-26T17:06:52.589Z,24.73
2018-07-26T17:09:26.016Z,24.95
2018-07-26T17:11:59.401Z,25.54
2018-07-26T17:14:33.118Z,25.41
2018-07-26T17:17:07.208Z,25.64
2018-07-26T17:19:40.926Z,26.36
2018-07-26T17:22:15.688Z,26.55
2018-07-26T17:24:50.295Z,26.51
2018-07-26T17:27:24.658Z,26.89
2018-07-26T17:29:58.089Z,26.67
2018-07-26T17:32:31.659Z,27.43
2018-07-26T17:35:05.406Z,27.05
2018-07-26T17:37:38.821Z,27.29
2018-07-26T17:40:12.227Z,27.68
2018-07-26T17:42:45.647Z,28.61
2018-07-26T17:45:19.147Z,28.54
2018-07-26T17:47:52.497Z,28.96
2018-07-26T17:50:25.866Z,29.35
2018-07-26T17:53:00.063Z,28.84
2018-07-26T17:55:33.444Z,28.83
2018-07-26T17:58:07.827Z,28.93
2018-07-26T18:00:41.271Z,28.98
2018-07-26T18:03:14.654Z,28.83
2018-07-26T18:05:48.055Z,28.59
2018-07-26T18:08:21.456Z,28.32
2018-07-26T18:10:54.877Z,28.54
2018-07-26T18:13:28.291Z,29.07
2018-07-26T18:16:01.683Z,28.80
2018-07-26T18:18:35.101Z,28.14
2018-07-26T18:21:08.598Z,28.24
2018-07-26T18:23:41.992Z,29.08
2018-07-26T18:26:15.860Z,28.87
2018-07-26T18:28:49.230Z,29.43
2018-07-26T18:31:22.673Z,29.44
2018-07-26T18:33:56.111Z,29.74
2018-07-26T18:36:29.876Z,29.75
2018-07-26T18:39:03.389Z,29.46
2018-07-26T18:41:36.895Z,30.26
2018-07-26T18:44:10.563Z,29.94
2018-07-26T18:46:43.895Z,29.70
2018-07-26T18:49:20.161Z,31.22
2018-07-26T18:51:53.576Z,30.92
2018-07-26T18:54:26.968Z,30.84
2018-07-26T18:57:00.379Z,31.80
2018-07-26T18:59:33.879Z,31.66
2018-07-26T19:02:07.321Z,31.40
2018-07-26T19:04:40.709Z,32.14
2018-07-26T19:07:14.161Z,32.11
2018-07-26T19:09:47.874Z,32.54
2018-07-26T19:12:21.357Z,32.78
2018-07-26T19:14:54.822Z,33.44
2018-07-26T19:17:28.239Z,33.41
2018-07-26T19:20:01.672Z,33.63
2018-07-26T19:22:35.416Z,33.74
2018-07-26T19:25:09.559Z,34.34
2018-07-26T19:27:42.977Z,34.93
2018-07-26T19:30:16.588Z,35.16
2018-07-26T19:32:50.002Z,35.36
2018-07-26T19:35:23.359Z,35.83
2018-07-26T19:37:56.768Z,35.92
2018-07-26T19:40:30.207Z,35.85
2018-07-26T19:43:03.596Z,35.88
2018-07-26T19:45:36.955Z,36.12
2018-07-26T19:48:10.596Z,36.60
2018-07-26T19:50:43.956Z,36.63
2018-07-26T19:53:17.423Z,37.06
2018-07-26T19:55:50.849Z,37.23
2018-07-26T19:58:24.236Z,38.06
2018-07-26T20:00:58.617Z,38.30
2018-07-26T20:03:32.035Z,39.15
2018-07-26T20:06:05.412Z,40.19
2018-07-26T20:08:38.793Z,39.78
2018-07-26T20:11:12.358Z,40.37
2018-07-26T20:13:45.758Z,40.68
2018-07-26T20:16:19.118Z,41.00
2018-07-26T20:18:52.571Z,40.72
2018-07-26T20:21:25.941Z,41.45
2018-07-26T20:23:59.336Z,41.56
2018-07-26T20:26:32.733Z,41.28
2018-07-26T20:29:06.254Z,41.97
2018-07-26T20:31:39.665Z,41.56
2018-07-26T20:34:13.065Z,42.15
2018-07-26T20:36:46.440Z,42.21
2018-07-26T20:39:19.849Z,42.64
2018-07-26T20:41:53.250Z,44.39
2018-07-26T20:44:26.647Z,42.71
2018-07-26T20:47:00.010Z,43.14
2018-07-26T20:49:33.447Z,42.59
2018-07-26T20:52:07.113Z,42.44
2018-07-26T20:54:40.546Z,42.72
2018-07-26T20:57:14.107Z,42.69
2018-07-26T20:59:47.553Z,41.74
2018-07-26T21:02:21.035Z,42.10
2018-07-26T21:04:54.405Z,42.03
2018-07-26T21:07:27.839Z,41.65
2018-07-26T21:10:01.255Z,45.59
2018-07-26T21:12:34.612Z,46.61
2018-07-26T21:15:09.035Z,45.96
2018-07-26T21:17:42.412Z,47.15
2018-07-26T21:20:15.831Z,47.00
2018-07-26T21:22:49.223Z,46.43
2018-07-26T21:25:22.629Z,46.77
2018-07-26T21:27:55.999Z,47.02
2018-07-26T21:30:29.398Z,46.07
2018-07-26T21:33:02.831Z,46.58
2018-07-26T21:35:36.264Z,46.31
2018-07-26T21:38:09.650Z,44.92
2018-07-26T21:40:43.068Z,45.40
2018-07-26T21:43:17.491Z,46.52
2018-07-26T21:45:50.971Z,47.21
2018-07-26T21:48:24.362Z,47.42
2018-07-26T21:50:57.763Z,48.96
2018-07-26T21:53:31.218Z,48.52
2018-07-26T21:56:04.598Z,48.41
2018-07-26T21:58:37.994Z,48.21
2018-07-26T22:01:11.405Z,47.65
2018-07-26T22:03:44.808Z,48.26
2018-07-26T22:06:18.208Z,48.45
2018-07-26T22:08:51.588Z,47.98
2018-07-26T22:11:25.025Z,47.76
2018-07-26T22:13:58.436Z,47.47
2018-07-26T22:16:31.815Z,48.61
2018-07-26T22:19:05.270Z,49.12
2018-07-26T22:21:38.651Z,49.39
2018-07-26T22:24:12.077Z,48.61
2018-07-26T22:26:45.447Z,48.34
2018-07-26T22:29:18.838Z,48.82
2018-07-26T22:31:52.237Z,48.82
2018-07-26T22:34:25.612Z,51.45
2018-07-26T22:36:58.955Z,51.80
2018-07-26T22:39:32.416Z,49.90
2018-07-26T22:42:05.799Z,51.56
2018-07-26T22:44:39.163Z,53.22
2018-07-26T22:47:12.520Z,51.42
2018-07-26T22:49:45.918Z,50.93
2018-07-26T22:52:19.329Z,52.48
2018-07-26T22:54:52.660Z,52.37
2018-07-26T22:57:26.044Z,50.99
2018-07-26T22:59:59.426Z,51.04
2018-07-26T23:02:32.896Z,50.71
2018-07-26T23:05:06.269Z,51.65
2018-07-26T23:07:39.599Z,52.76
2018-07-26T23:10:12.984Z,52.26
2018-07-26T23:12:46.369Z,51.88
2018-07-26T23:15:19.753Z,52.53
2018-07-26T23:17:53.098Z,51.12
2018-07-26T23:20:26.486Z,50.88
2018-07-26T23:22:59.849Z,50.77
2018-07-26T23:25:33.313Z,50.79
2018-07-26T23:28:06.660Z,50.72
2018-07-26T23:30:40.047Z,52.69
2018-07-26T23:33:13.413Z,50.90
2018-07-26T23:35:46.772Z,52.12
2018-07-26T23:38:20.137Z,50.56
2018-07-26T23:40:53.503Z,50.65
2018-07-26T23:43:26.851Z,50.40
2018-07-26T23:46:00.221Z,50.27
2018-07-26T23:48:33.583Z,50.64
2018-07-26T23:51:07.319Z,50.50
2018-07-26T23:53:40.668Z,50.67
2018-07-26T23:56:14.028Z,51.21
2018-07-26T23:58:47.388Z,51.23
